createdAt,value
2019-05-28T00:00:57.873Z,19.32
2019-05-28T00:03:27.297Z,19.19
2019-05-28T00:05:56.686Z,19.02
2019-05-28T00:08:26.202Z,18.82
2019-05-28T00:10:55.520Z,18.51
2019-05-28T00:13:31.884Z,18.28
2019-05-28T00:16:01.284Z,18.04
2019-05-28T00:18:30.655Z,17.86
2019-05-28T00:21:00.024Z,17.75
2019-05-28T00:23:29.402Z,17.66
2019-05-28T00:25:58.765Z,17.51
2019-05-28T00:28:28.192Z,17.40
2019-05-28T00:30:57.496Z,17.29
2019-05-28T00:33:26.851Z,17.16
2019-05-28T00:35:56.115Z,16.98
2019-05-28T00:38:25.426Z,16.81
2019-05-28T00:40:54.786Z,16.80
2019-05-28T00:43:37.678Z,16.77
2019-05-28T00:46:07.224Z,16.71
2019-05-28T00:48:36.586Z,16.68
2019-05-28T00:51:06.364Z,16.62
2019-05-28T00:53:35.751Z,16.60
2019-05-28T00:56:05.707Z,16.54
2019-05-28T00:58:36.113Z,16.53
2019-05-28T01:01:06.237Z,16.53
2019-05-28T01:03:35.520Z,16.56
2019-05-28T01:06:04.982Z,16.55
2019-05-28T01:08:34.737Z,16.53
2019-05-28T01:11:04.150Z,16.49
2019-05-28T01:13:33.476Z,16.47
2019-05-28T01:16:02.773Z,16.48
2019-05-28T01:18:32.132Z,16.47
2019-05-28T01:21:01.548Z,16.46
2019-05-28T01:23:30.847Z,16.46
2019-05-28T01:26:00.086Z,16.45
2019-05-28T01:28:36.941Z,16.45
2019-05-28T01:31:06.301Z,16.44
2019-05-28T01:33:35.613Z,16.46
2019-05-28T01:36:05.553Z,16.45
2019-05-28T01:38:34.849Z,16.44
2019-05-28T01:41:04.202Z,16.42
2019-05-28T01:43:33.567Z,16.41
2019-05-28T01:46:02.849Z,16.38
2019-05-28T01:48:32.169Z,16.40
2019-05-28T01:51:01.498Z,16.40
2019-05-28T01:53:30.719Z,16.37
2019-05-28T01:56:00.004Z,16.35
2019-05-28T01:58:29.398Z,16.37
2019-05-28T02:01:12.417Z,16.38
2019-05-28T02:03:29.883Z,16.39
2019-05-28T02:05:59.188Z,16.40
2019-05-28T02:08:28.417Z,16.41
2019-05-28T02:10:57.686Z,16.39
2019-05-28T02:13:42.103Z,16.39
2019-05-28T02:16:11.475Z,16.40
2019-05-28T02:18:40.752Z,16.36
2019-05-28T02:21:10.076Z,16.37
2019-05-28T02:23:39.471Z,16.37
2019-05-28T02:26:08.979Z,16.39
2019-05-28T02:28:38.370Z,16.39
2019-05-28T02:31:07.781Z,16.41
2019-05-28T02:33:37.183Z,16.39
2019-05-28T02:36:06.580Z,16.41
2019-05-28T02:38:35.794Z,16.40
2019-05-28T02:41:05.184Z,16.43
2019-05-28T02:43:46.806Z,16.49
2019-05-28T02:46:16.183Z,16.46
2019-05-28T02:48:45.523Z,16.45
2019-05-28T02:51:15.214Z,16.46
2019-05-28T02:53:44.573Z,16.45
2019-05-28T02:56:17.161Z,16.50
2019-05-28T02:58:48.114Z,16.52
2019-05-28T03:01:18.915Z,16.50
2019-05-28T03:03:50.272Z,16.48
2019-05-28T03:06:22.398Z,16.47
2019-05-28T03:08:54.665Z,16.48
2019-05-28T03:11:24.120Z,16.46
2019-05-28T03:13:53.917Z,16.48
2019-05-28T03:16:26.191Z,16.48
2019-05-28T03:18:58.449Z,16.44
2019-05-28T03:21:29.754Z,16.40
2019-05-28T03:24:01.318Z,16.40
2019-05-28T03:26:31.109Z,16.38
2019-05-28T03:29:00.877Z,16.38
2019-05-28T03:31:30.427Z,16.36
2019-05-28T03:33:59.745Z,16.36
2019-05-28T03:36:31.603Z,16.33
2019-05-28T03:39:01.277Z,16.32
2019-05-28T03:41:30.606Z,16.34
2019-05-28T03:43:59.972Z,16.34
2019-05-28T03:46:29.321Z,16.36
2019-05-28T03:48:58.713Z,16.41
2019-05-28T03:51:28.099Z,16.42
2019-05-28T03:53:57.424Z,16.43
2019-05-28T03:56:26.823Z,16.44
2019-05-28T03:58:56.187Z,16.41
2019-05-28T04:01:25.602Z,16.40
2019-05-28T04:03:55.138Z,16.42
2019-05-28T04:06:24.344Z,16.46
2019-05-28T04:08:53.644Z,16.50
2019-05-28T04:11:22.965Z,16.54
2019-05-28T04:13:52.198Z,16.58
2019-05-28T04:16:23.210Z,16.60
2019-05-28T04:18:52.609Z,16.58
2019-05-28T04:21:21.895Z,16.60
2019-05-28T04:23:51.676Z,16.62
2019-05-28T04:26:21.060Z,16.60
2019-05-28T04:28:53.470Z,16.63
2019-05-28T04:31:23.721Z,16.68
2019-05-28T04:33:53.151Z,16.71
2019-05-28T04:36:22.464Z,16.75
2019-05-28T04:38:51.797Z,16.78
2019-05-28T04:41:21.088Z,16.79
2019-05-28T04:43:50.383Z,16.81
2019-05-28T04:46:19.778Z,16.86
2019-05-28T04:48:49.144Z,16.91
2019-05-28T04:51:18.520Z,16.96
2019-05-28T04:53:47.967Z,17.09
2019-05-28T04:56:17.373Z,17.21
2019-05-28T04:58:58.957Z,17.29
2019-05-28T05:01:28.263Z,17.36
2019-05-28T05:03:57.644Z,17.46
2019-05-28T05:06:26.892Z,17.57
2019-05-28T05:08:56.188Z,17.74
2019-05-28T05:11:25.418Z,17.82
2019-05-28T05:13:54.807Z,17.92
2019-05-28T05:16:24.028Z,17.98
2019-05-28T05:18:53.397Z,18.20
2019-05-28T05:21:22.719Z,18.31
2019-05-28T05:23:52.077Z,18.40
2019-05-28T05:26:21.436Z,18.38
2019-05-28T05:28:50.718Z,18.37
2019-05-28T05:31:20.082Z,18.41
2019-05-28T05:33:49.306Z,18.52
2019-05-28T05:36:18.715Z,18.64
2019-05-28T05:38:48.008Z,18.64
2019-05-28T05:41:17.282Z,18.72
2019-05-28T05:44:02.134Z,18.71
2019-05-28T05:46:31.471Z,18.80
2019-05-28T05:49:00.812Z,18.74
2019-05-28T05:51:30.211Z,18.71
2019-05-28T05:53:59.575Z,18.73
2019-05-28T05:56:28.936Z,18.85
2019-05-28T05:58:58.314Z,19.03
2019-05-28T06:01:27.652Z,19.05
2019-05-28T06:03:56.846Z,19.11
2019-05-28T06:06:26.114Z,19.14
2019-05-28T06:08:55.410Z,19.20
2019-05-28T06:11:24.707Z,19.27
2019-05-28T06:14:03.177Z,19.35
2019-05-28T06:16:32.547Z,19.44
2019-05-28T06:19:01.915Z,19.51
2019-05-28T06:21:31.241Z,19.68
2019-05-28T06:24:00.694Z,19.72
2019-05-28T06:26:29.991Z,19.75
2019-05-28T06:28:59.381Z,19.76
2019-05-28T06:31:28.907Z,19.82
2019-05-28T06:33:58.561Z,19.88
2019-05-28T06:36:27.910Z,19.95
2019-05-28T06:38:57.200Z,19.97
2019-05-28T06:41:26.482Z,19.97
2019-05-28T06:44:09.297Z,19.99
2019-05-28T06:46:38.614Z,20.01
2019-05-28T06:49:08.069Z,20.01
2019-05-28T06:51:37.347Z,19.90
2019-05-28T06:54:06.763Z,19.89
2019-05-28T06:56:36.136Z,20.03
2019-05-28T06:59:08.270Z,20.12
2019-05-28T07:01:37.881Z,20.15
2019-05-28T07:04:13.763Z,20.13
2019-05-28T07:06:38.206Z,20.13
2019-05-28T07:09:07.817Z,20.21
2019-05-28T07:11:37.197Z,20.32
2019-05-28T07:14:06.582Z,20.36
2019-05-28T07:16:52.041Z,20.34
2019-05-28T07:19:23.407Z,20.38
2019-05-28T07:21:38.813Z,20.37
2019-05-28T07:24:08.259Z,20.39
2019-05-28T07:26:37.871Z,20.42
2019-05-28T07:29:07.245Z,20.55
2019-05-28T07:31:36.549Z,20.71
2019-05-28T07:34:05.961Z,21.00
2019-05-28T07:36:35.407Z,21.15
2019-05-28T07:39:06.714Z,21.55
2019-05-28T07:41:36.013Z,21.92
2019-05-28T07:44:05.489Z,22.32
2019-05-28T07:46:34.898Z,22.54
2019-05-28T07:49:04.324Z,22.62
2019-05-28T07:51:33.659Z,23.10
2019-05-28T07:54:03.324Z,23.24
2019-05-28T07:56:32.664Z,23.10
2019-05-28T07:59:13.963Z,23.26
2019-05-28T08:01:43.320Z,23.52
2019-05-28T08:04:12.692Z,23.45
2019-05-28T08:06:54.264Z,23.88
2019-05-28T08:09:14.154Z,23.98
2019-05-28T08:11:43.524Z,23.82
2019-05-28T08:14:13.141Z,23.75
2019-05-28T08:16:52.335Z,23.68
2019-05-28T08:19:13.598Z,23.74
2019-05-28T08:21:42.992Z,23.47
2019-05-28T08:24:13.355Z,23.29
2019-05-28T08:26:43.098Z,23.14
2019-05-28T08:29:12.438Z,23.27
2019-05-28T08:31:41.808Z,23.61
2019-05-28T08:34:11.227Z,23.75
2019-05-28T08:36:40.535Z,23.79
2019-05-28T08:39:09.898Z,23.97
2019-05-28T08:41:39.401Z,23.91
2019-05-28T08:44:14.665Z,23.90
2019-05-28T08:46:44.095Z,23.75
2019-05-28T08:49:13.496Z,23.56
2019-05-28T08:51:42.862Z,23.60
2019-05-28T08:54:12.260Z,23.68
2019-05-28T08:56:41.787Z,23.85
2019-05-28T08:59:11.155Z,23.85
2019-05-28T09:01:40.466Z,24.06
2019-05-28T09:04:09.871Z,24.34
2019-05-28T09:06:39.086Z,24.58
2019-05-28T09:09:08.534Z,24.33
2019-05-28T09:11:38.739Z,24.65
2019-05-28T09:14:17.528Z,24.68
2019-05-28T09:16:46.855Z,24.64
2019-05-28T09:19:16.157Z,24.77
2019-05-28T09:21:45.450Z,24.56
2019-05-28T09:24:14.847Z,24.78
2019-05-28T09:26:44.324Z,25.23
2019-05-28T09:29:13.906Z,24.95
2019-05-28T09:31:43.314Z,24.93
2019-05-28T09:34:12.684Z,25.30
2019-05-28T09:36:42.054Z,25.17
2019-05-28T09:39:11.394Z,25.01
2019-05-28T09:41:40.695Z,25.12
2019-05-28T09:44:18.227Z,25.14
2019-05-28T09:46:47.465Z,25.05
2019-05-28T09:49:16.793Z,25.38
2019-05-28T09:51:46.167Z,25.21
2019-05-28T09:54:15.539Z,25.08
2019-05-28T09:56:45.028Z,25.58
2019-05-28T09:59:14.551Z,25.96
2019-05-28T10:01:44.186Z,26.01
2019-05-28T10:04:13.701Z,25.84
2019-05-28T10:06:43.099Z,25.99
2019-05-28T10:09:12.725Z,26.25
2019-05-28T10:11:42.104Z,26.01
2019-05-28T10:14:11.640Z,26.06
2019-05-28T10:16:40.993Z,25.59
2019-05-28T10:19:11.083Z,25.91
2019-05-28T10:21:40.495Z,25.80
2019-05-28T10:24:09.862Z,25.67
2019-05-28T10:26:39.412Z,26.16
2019-05-28T10:29:08.974Z,26.47
2019-05-28T10:31:38.432Z,26.56
2019-05-28T10:34:07.904Z,26.41
2019-05-28T10:36:38.170Z,26.01
2019-05-28T10:39:09.334Z,25.94
2019-05-28T10:41:38.774Z,25.97
2019-05-28T10:44:22.361Z,25.72
2019-05-28T10:46:51.730Z,25.56
2019-05-28T10:49:21.098Z,25.70
2019-05-28T10:51:50.547Z,25.45
2019-05-28T10:54:19.960Z,25.28
2019-05-28T10:56:49.522Z,25.27
2019-05-28T10:59:19.071Z,25.31
2019-05-28T11:01:48.808Z,25.30
2019-05-28T11:04:18.345Z,25.23
2019-05-28T11:06:51.767Z,25.41
2019-05-28T11:09:18.865Z,25.71
2019-05-28T11:11:48.365Z,25.73
2019-05-28T11:14:17.953Z,26.24
2019-05-28T11:16:47.280Z,26.77
2019-05-28T11:19:16.668Z,26.96
2019-05-28T11:21:46.055Z,27.76
2019-05-28T11:24:15.360Z,28.35
2019-05-28T11:26:44.722Z,29.32
2019-05-28T11:29:23.137Z,29.55
2019-05-28T11:31:52.506Z,29.01
2019-05-28T11:34:21.886Z,28.75
2019-05-28T11:37:06.254Z,28.63
2019-05-28T11:39:22.206Z,28.76
2019-05-28T11:41:51.556Z,28.63
2019-05-28T11:44:20.883Z,28.80
2019-05-28T11:46:50.478Z,28.80
2019-05-28T11:49:19.901Z,28.52
2019-05-28T11:51:49.204Z,27.99
2019-05-28T11:54:18.701Z,27.81
2019-05-28T11:56:47.971Z,28.21
2019-05-28T11:59:29.336Z,28.80
2019-05-28T12:01:59.509Z,30.06
2019-05-28T12:04:29.038Z,30.79
2019-05-28T12:06:58.364Z,30.45
2019-05-28T12:09:28.176Z,30.47
2019-05-28T12:11:57.744Z,30.88
2019-05-28T12:14:27.491Z,30.63
2019-05-28T12:16:56.880Z,30.02
2019-05-28T12:19:26.272Z,30.47
2019-05-28T12:21:55.661Z,31.28
2019-05-28T12:24:28.262Z,30.12
2019-05-28T12:26:56.131Z,30.35
2019-05-28T12:29:28.288Z,30.89
2019-05-28T12:31:57.828Z,31.32
2019-05-28T12:34:27.426Z,31.09
2019-05-28T12:36:56.911Z,29.89
2019-05-28T12:39:26.226Z,29.43
2019-05-28T12:42:03.057Z,29.29
2019-05-28T12:44:41.045Z,29.26
2019-05-28T12:46:57.622Z,29.01
2019-05-28T12:49:26.908Z,28.91
2019-05-28T12:51:56.248Z,28.20
2019-05-28T12:54:25.629Z,27.56
2019-05-28T12:56:55.013Z,27.30
2019-05-28T12:59:24.708Z,27.25
2019-05-28T13:01:54.144Z,26.82
2019-05-28T13:04:23.566Z,26.36
2019-05-28T13:06:52.847Z,25.54
2019-05-28T13:09:22.206Z,24.65
2019-05-28T13:11:51.589Z,24.18
2019-05-28T13:14:21.958Z,23.91
2019-05-28T13:16:51.363Z,23.59
2019-05-28T13:19:20.705Z,23.04
2019-05-28T13:21:50.023Z,22.49
2019-05-28T13:24:19.395Z,22.20
2019-05-28T13:26:48.781Z,21.86
2019-05-28T13:29:18.174Z,21.00
2019-05-28T13:31:47.485Z,21.25
2019-05-28T13:34:16.793Z,21.55
2019-05-28T13:36:46.091Z,21.68
2019-05-28T13:39:15.465Z,21.81
2019-05-28T13:41:44.868Z,22.01
2019-05-28T13:44:14.306Z,23.19
2019-05-28T13:46:43.706Z,24.32
2019-05-28T13:49:13.124Z,24.63
2019-05-28T13:51:42.665Z,24.52
2019-05-28T13:54:12.977Z,25.08
2019-05-28T13:56:42.380Z,26.02
2019-05-28T13:59:11.750Z,26.54
2019-05-28T14:01:41.181Z,26.47
2019-05-28T14:04:10.598Z,26.62
2019-05-28T14:06:44.148Z,26.38
2019-05-28T14:09:11.113Z,25.35
2019-05-28T14:11:40.543Z,25.86
2019-05-28T14:14:09.903Z,26.09
2019-05-28T14:16:39.211Z,26.61
2019-05-28T14:19:08.880Z,26.70
2019-05-28T14:21:38.243Z,26.69
2019-05-28T14:24:07.619Z,27.08
2019-05-28T14:26:37.019Z,27.18
2019-05-28T14:29:06.475Z,27.30
2019-05-28T14:31:35.839Z,27.73
2019-05-28T14:34:05.549Z,28.32
2019-05-28T14:36:34.786Z,28.92
2019-05-28T14:39:05.521Z,29.72
2019-05-28T14:41:34.916Z,30.33
2019-05-28T14:44:05.087Z,30.75
2019-05-28T14:46:34.532Z,31.05
2019-05-28T14:49:07.746Z,31.53
2019-05-28T14:51:36.147Z,31.76
2019-05-28T14:54:05.600Z,31.92
2019-05-28T14:56:35.153Z,31.80
2019-05-28T14:59:04.919Z,31.62
2019-05-28T15:01:34.295Z,30.64
2019-05-28T15:04:03.755Z,30.96
2019-05-28T15:06:33.245Z,31.82
2019-05-28T15:09:19.502Z,31.83
2019-05-28T15:11:33.698Z,31.45
2019-05-28T15:14:02.978Z,30.99
2019-05-28T15:16:32.505Z,30.70
2019-05-28T15:19:05.071Z,30.35
2019-05-28T15:21:34.441Z,29.96
2019-05-28T15:24:03.789Z,29.18
2019-05-28T15:26:33.104Z,28.90
2019-05-28T15:29:02.784Z,28.32
2019-05-28T15:31:32.153Z,28.24
2019-05-28T15:34:02.118Z,27.89
2019-05-28T15:36:31.483Z,27.79
2019-05-28T15:39:00.858Z,27.78
2019-05-28T15:41:30.210Z,28.47
2019-05-28T15:43:59.657Z,28.70
2019-05-28T15:46:29.143Z,28.96
2019-05-28T15:48:58.814Z,29.20
2019-05-28T15:51:28.480Z,29.17
2019-05-28T15:53:59.125Z,28.78
2019-05-28T15:56:28.672Z,28.41
2019-05-28T15:58:58.016Z,28.37
2019-05-28T16:01:27.533Z,28.29
2019-05-28T16:03:57.295Z,28.50
2019-05-28T16:06:26.665Z,28.85
2019-05-28T16:08:56.055Z,28.98
2019-05-28T16:11:25.461Z,29.14
2019-05-28T16:13:54.907Z,28.99
2019-05-28T16:16:24.478Z,28.82
2019-05-28T16:18:53.994Z,28.08
2019-05-28T16:21:23.474Z,27.53
2019-05-28T16:23:52.877Z,26.86
2019-05-28T16:26:22.330Z,26.49
2019-05-28T16:28:51.795Z,26.23
2019-05-28T16:31:21.497Z,26.55
2019-05-28T16:33:50.876Z,26.66
2019-05-28T16:36:20.195Z,26.67
2019-05-28T16:38:49.571Z,26.61
2019-05-28T16:41:19.039Z,26.58
2019-05-28T16:43:48.416Z,26.34
2019-05-28T16:46:17.809Z,26.03
2019-05-28T16:48:47.223Z,25.97
2019-05-28T16:51:16.790Z,25.72
2019-05-28T16:53:58.649Z,25.51
2019-05-28T16:56:28.791Z,25.28
2019-05-28T16:58:58.337Z,25.28
2019-05-28T17:01:27.713Z,25.45
2019-05-28T17:03:57.058Z,25.30
2019-05-28T17:06:26.427Z,25.14
2019-05-28T17:08:55.816Z,24.98
2019-05-28T17:11:27.941Z,24.85
2019-05-28T17:13:56.445Z,24.90
2019-05-28T17:16:28.767Z,24.95
2019-05-28T17:18:58.108Z,25.13
2019-05-28T17:21:27.479Z,25.26
2019-05-28T17:23:56.930Z,25.29
2019-05-28T17:26:29.072Z,25.34
2019-05-28T17:28:58.747Z,25.32
2019-05-28T17:31:28.029Z,25.29
2019-05-28T17:33:57.361Z,25.20
2019-05-28T17:36:26.655Z,25.02
2019-05-28T17:38:56.074Z,24.93
2019-05-28T17:41:25.387Z,24.89
2019-05-28T17:43:54.771Z,24.81
2019-05-28T17:46:24.084Z,24.67
2019-05-28T17:48:53.516Z,24.59
2019-05-28T17:51:22.946Z,24.47
2019-05-28T17:53:52.345Z,24.40
2019-05-28T17:56:21.732Z,24.34
2019-05-28T17:58:51.314Z,24.21
2019-05-28T18:01:20.873Z,24.14
2019-05-28T18:03:50.197Z,24.13
2019-05-28T18:06:19.599Z,24.00
2019-05-28T18:08:49.053Z,23.94
2019-05-28T18:11:30.712Z,23.88
2019-05-28T18:13:59.996Z,23.82
2019-05-28T18:16:29.481Z,23.74
2019-05-28T18:19:00.840Z,23.68
2019-05-28T18:21:30.153Z,23.58
2019-05-28T18:23:59.566Z,23.49
2019-05-28T18:26:28.990Z,23.40
2019-05-28T18:28:58.356Z,23.29
2019-05-28T18:31:27.758Z,23.21
2019-05-28T18:33:57.121Z,23.18
2019-05-28T18:36:26.504Z,23.10
2019-05-28T18:38:55.821Z,23.03
2019-05-28T18:41:25.127Z,22.79
2019-05-28T18:43:54.590Z,22.59
2019-05-28T18:46:24.201Z,22.54
2019-05-28T18:48:53.557Z,22.43
2019-05-28T18:51:22.960Z,22.39
2019-05-28T18:53:52.371Z,22.37
2019-05-28T18:56:21.754Z,22.25
2019-05-28T18:58:51.130Z,22.09
2019-05-28T19:01:20.544Z,22.04
2019-05-28T19:03:49.916Z,21.94
2019-05-28T19:06:19.294Z,21.89
2019-05-28T19:08:48.690Z,21.82
2019-05-28T19:11:18.123Z,21.83
2019-05-28T19:13:47.421Z,21.79
2019-05-28T19:16:16.829Z,21.73
2019-05-28T19:18:46.128Z,21.63
2019-05-28T19:21:15.523Z,21.55
2019-05-28T19:23:45.031Z,21.55
2019-05-28T19:26:14.336Z,21.52
2019-05-28T19:28:43.706Z,21.51
2019-05-28T19:31:13.100Z,21.50
2019-05-28T19:33:42.536Z,21.51
2019-05-28T19:36:13.330Z,21.49
2019-05-28T19:38:45.914Z,21.51
2019-05-28T19:41:15.274Z,21.54
2019-05-28T19:43:44.988Z,21.50
2019-05-28T19:46:14.370Z,21.47
2019-05-28T19:48:43.938Z,21.44
2019-05-28T19:51:13.409Z,21.43
2019-05-28T19:53:42.911Z,21.41
2019-05-28T19:56:12.344Z,21.39
2019-05-28T19:58:41.756Z,21.39
2019-05-28T20:01:11.518Z,21.40
2019-05-28T20:03:41.009Z,21.39
2019-05-28T20:06:10.772Z,21.36
2019-05-28T20:08:40.335Z,21.35
2019-05-28T20:11:09.698Z,21.36
2019-05-28T20:13:39.231Z,21.36
2019-05-28T20:16:08.631Z,21.35
2019-05-28T20:18:38.139Z,21.34
2019-05-28T20:21:08.164Z,21.35
2019-05-28T20:23:37.599Z,21.35
2019-05-28T20:26:07.153Z,21.29
2019-05-28T20:28:36.706Z,21.22
2019-05-28T20:31:06.111Z,21.16
2019-05-28T20:33:35.796Z,21.17
2019-05-28T20:36:05.942Z,21.14
2019-05-28T20:38:35.471Z,21.12
2019-05-28T20:41:06.046Z,21.06
2019-05-28T20:43:35.906Z,20.98
2019-05-28T20:46:06.557Z,20.92
2019-05-28T20:48:37.940Z,20.90
2019-05-28T20:51:19.633Z,20.87
2019-05-28T20:53:38.404Z,20.87
2019-05-28T20:56:07.889Z,20.80
2019-05-28T20:58:40.601Z,20.79
2019-05-28T21:01:08.662Z,20.79
2019-05-28T21:03:38.128Z,20.73
2019-05-28T21:06:07.593Z,20.71
2019-05-28T21:08:36.873Z,20.70
2019-05-28T21:11:06.291Z,20.69
2019-05-28T21:13:35.892Z,20.70
2019-05-28T21:16:05.390Z,20.69
2019-05-28T21:18:34.998Z,20.68
2019-05-28T21:21:04.484Z,20.69
2019-05-28T21:23:33.851Z,20.72
2019-05-28T21:26:03.304Z,20.74
2019-05-28T21:28:32.757Z,20.72
2019-05-28T21:31:02.318Z,20.67
2019-05-28T21:33:31.751Z,20.61
2019-05-28T21:36:01.456Z,20.56
2019-05-28T21:38:30.962Z,20.54
2019-05-28T21:41:00.375Z,20.54
2019-05-28T21:43:29.832Z,20.49
2019-05-28T21:46:00.440Z,20.48
2019-05-28T21:48:30.138Z,20.44
2019-05-28T21:51:00.781Z,20.43
2019-05-28T21:53:30.767Z,20.41
2019-05-28T21:56:01.355Z,20.40
2019-05-28T21:58:30.958Z,20.36
2019-05-28T22:01:06.197Z,20.32
2019-05-28T22:03:35.590Z,20.29
2019-05-28T22:06:05.490Z,20.29
2019-05-28T22:08:35.167Z,20.29
2019-05-28T22:11:05.122Z,20.28
2019-05-28T22:13:34.897Z,20.28
2019-05-28T22:16:04.807Z,20.27
2019-05-28T22:18:34.252Z,20.28
2019-05-28T22:21:04.530Z,20.27
2019-05-28T22:23:34.141Z,20.27
2019-05-28T22:26:05.026Z,20.26
2019-05-28T22:28:34.478Z,20.21
2019-05-28T22:31:03.975Z,20.17
2019-05-28T22:33:34.110Z,20.15
2019-05-28T22:36:03.543Z,20.14
2019-05-28T22:38:33.648Z,20.12
2019-05-28T22:41:03.022Z,20.12
2019-05-28T22:43:32.319Z,20.10
2019-05-28T22:46:01.704Z,20.04
2019-05-28T22:48:31.066Z,19.99
2019-05-28T22:51:01.469Z,19.95
2019-05-28T22:53:30.835Z,19.93
2019-05-28T22:56:00.217Z,19.89
2019-05-28T22:58:29.663Z,19.81
2019-05-28T23:00:59.027Z,19.77
2019-05-28T23:03:28.242Z,19.74
2019-05-28T23:05:57.561Z,19.70
2019-05-28T23:08:26.925Z,19.68
2019-05-28T23:10:57.020Z,19.65
2019-05-28T23:13:26.747Z,19.61
2019-05-28T23:15:56.129Z,19.59
2019-05-28T23:18:25.600Z,19.54
2019-05-28T23:20:55.093Z,19.47
2019-05-28T23:23:24.375Z,19.35
2019-05-28T23:25:53.790Z,19.31
2019-05-28T23:28:23.052Z,19.25
2019-05-28T23:30:58.505Z,19.26
2019-05-28T23:33:27.847Z,19.21
2019-05-28T23:35:57.246Z,19.17
2019-05-28T23:38:26.550Z,19.12
2019-05-28T23:40:55.923Z,19.12
2019-05-28T23:43:25.283Z,19.11
2019-05-28T23:45:54.669Z,18.96
2019-05-28T23:48:24.214Z,18.90
2019-05-28T23:50:53.606Z,18.88
2019-05-28T23:53:23.046Z,18.82
2019-05-28T23:55:52.432Z,18.76
2019-05-28T23:58:22.060Z,18.76
